Time;durP1;ratioP1;P1;durP2;ratioP2;P2;SDS_P1;SDS_P2;PMS_P1;PMS_P2;Temp;Humidity;BMP_temperature;BMP_pressure;BME280_temperature;BME280_humidity;BME280_pressure;Samples;Min_cycle;Max_cycle;Signal;HPM_P1;HPM_P2
2022/11/11 00:01:58;;;;;;;20.20;8.23;;;;;;;;;;4993410;28;20353;-65
2022/11/11 00:04:23;;;;;;;27.58;9.32;;;;;;;;;;4993728;28;20030;-64
2022/11/11 00:06:48;;;;;;;27.58;9.23;;;;;;;;;;4991399;28;20570;-65
2022/11/11 00:09:13;;;;;;;28.45;8.50;;;;;;;;;;5004788;28;20030;-63
2022/11/11 00:11:39;;;;;;;23.92;9.02;;;;;;;;;;4993887;28;20041;-63
2022/11/11 00:14:04;;;;;;;29.17;9.57;;;;;;;;;;4984359;28;20690;-64
2022/11/11 00:25:04;;;;;;;19.98;7.93;;;;;;;;;;4987014;28;20022;-66
2022/11/11 00:27:26;;;;;;;23.23;8.05;;;;;;;;;;4984722;28;20077;-64
2022/11/11 00:29:52;;;;;;;18.15;8.23;;;;;;;;;;4992115;28;20452;-65
2022/11/11 00:32:23;;;;;;;22.63;9.70;;;;;;;;;;4991560;28;20105;-65
2022/11/11 00:37:33;;;;;;;25.58;10.85;;;;;;;;;;4987610;28;20068;-65
2022/11/11 00:39:58;;;;;;;25.85;8.88;;;;;;;;;;4993299;28;20026;-64
2022/11/11 00:42:23;;;;;;;24.05;8.80;;;;;;;;;;4991686;28;20109;-66
2022/11/11 00:44:49;;;;;;;26.73;8.73;;;;;;;;;;4988576;28;20045;-64
2022/11/11 00:52:44;;;;;;;28.58;9.90;;;;;;;;;;5000361;28;20519;-66
2022/11/11 00:55:09;;;;;;;24.80;8.00;;;;;;;;;;5001992;28;20105;-65
2022/11/11 00:57:34;;;;;;;24.92;9.15;;;;;;;;;;4992011;28;20106;-64
2022/11/11 00:59:59;;;;;;;32.40;9.05;;;;;;;;;;4992736;28;20041;-64
2022/11/11 01:02:24;;;;;;;37.15;10.43;;;;;;;;;;4991471;28;20033;-65
2022/11/11 01:04:50;;;;;;;30.65;10.77;;;;;;;;;;5007799;28;20030;-64
2022/11/11 01:07:15;;;;;;;30.77;10.18;;;;;;;;;;4995550;28;20026;-65
2022/11/11 01:09:40;;;;;;;31.95;8.88;;;;;;;;;;5000312;28;20034;-67
2022/11/11 01:12:05;;;;;;;21.65;9.38;;;;;;;;;;4992860;28;20041;-64
2022/11/11 01:14:30;;;;;;;23.25;8.77;;;;;;;;;;4980133;28;20019;-65
2022/11/11 01:16:56;;;;;;;27.25;9.52;;;;;;;;;;4989191;28;20037;-64
2022/11/11 01:19:21;;;;;;;19.33;8.05;;;;;;;;;;4992458;28;20092;-65
2022/11/11 01:21:46;;;;;;;30.23;10.52;;;;;;;;;;4992676;28;20165;-63
2022/11/11 01:24:11;;;;;;;28.23;10.80;;;;;;;;;;4991800;28;20026;-66
2022/11/11 01:26:37;;;;;;;33.20;9.70;;;;;;;;;;4990877;28;20030;-66
2022/11/11 01:29:02;;;;;;;21.17;8.88;;;;;;;;;;4992795;28;20366;-64
2022/11/11 01:31:27;;;;;;;28.23;9.52;;;;;;;;;;4991318;28;20472;-65
2022/11/11 01:33:53;;;;;;;29.58;9.98;;;;;;;;;;4985941;28;20026;-65
2022/11/11 01:36:19;;;;;;;43.65;11.18;;;;;;;;;;4988858;28;20034;-66
2022/11/11 01:38:47;;;;;;;32.33;10.20;;;;;;;;;;4991535;28;20018;-63
2022/11/11 01:41:32;;;;;;;35.58;10.25;;;;;;;;;;4986910;28;20435;-64
2022/11/11 01:44:01;;;;;;;31.38;9.27;;;;;;;;;;4993079;28;20065;-63
2022/11/11 01:46:31;;;;;;;33.95;9.27;;;;;;;;;;4989589;28;20117;-65
2022/11/11 01:49:19;;;;;;;37.22;9.90;;;;;;;;;;4991655;28;20061;-66
2022/11/11 01:51:47;;;;;;;28.58;8.18;;;;;;;;;;4991732;28;20101;-66
2022/11/11 01:54:18;;;;;;;29.73;9.05;;;;;;;;;;4987485;28;20034;-65
2022/11/11 01:56:45;;;;;;;26.33;10.48;;;;;;;;;;4990560;28;20030;-65
2022/11/11 01:59:13;;;;;;;27.35;10.50;;;;;;;;;;4991241;28;20026;-65
2022/11/11 02:01:39;;;;;;;32.55;9.55;;;;;;;;;;4990590;28;20019;-63
2022/11/11 02:07:01;;;;;;;25.95;9.80;;;;;;;;;;4970795;28;20508;-65
2022/11/11 02:09:27;;;;;;;28.50;9.75;;;;;;;;;;4989237;28;20098;-64
2022/11/11 02:14:41;;;;;;;32.63;10.25;;;;;;;;;;4991651;28;20052;-63
2022/11/11 02:17:12;;;;;;;28.08;10.45;;;;;;;;;;4997260;28;20026;-62
2022/11/11 02:19:37;;;;;;;28.40;9.60;;;;;;;;;;4992825;28;20037;-64
2022/11/11 02:22:06;;;;;;;22.23;9.00;;;;;;;;;;5003338;28;20546;-65
2022/11/11 02:24:31;;;;;;;34.63;9.80;;;;;;;;;;4992051;28;20477;-65
2022/11/11 02:26:57;;;;;;;29.27;10.10;;;;;;;;;;4989851;28;20045;-64
2022/11/11 02:29:23;;;;;;;23.85;9.18;;;;;;;;;;4991095;28;20030;-65
2022/11/11 02:31:48;;;;;;;31.63;9.65;;;;;;;;;;4990210;28;20022;-65
2022/11/11 02:34:13;;;;;;;30.42;9.45;;;;;;;;;;4990252;28;20026;-66
2022/11/11 02:36:39;;;;;;;22.30;9.27;;;;;;;;;;4989505;28;20022;-65
2022/11/11 02:39:04;;;;;;;29.83;9.13;;;;;;;;;;4991513;28;20436;-66
2022/11/11 02:44:13;;;;;;;20.25;8.82;;;;;;;;;;4991352;28;20041;-66
2022/11/11 02:46:39;;;;;;;35.40;9.10;;;;;;;;;;4989090;28;20027;-64
2022/11/11 02:49:04;;;;;;;25.73;9.27;;;;;;;;;;4990996;28;20022;-66
2022/11/11 02:51:29;;;;;;;33.53;10.50;;;;;;;;;;4996414;28;20018;-64
2022/11/11 02:53:57;;;;;;;25.52;9.20;;;;;;;;;;5000378;28;20666;-66
2022/11/11 02:57:06;;;;;;;24.00;8.57;;;;;;;;;;4999606;28;20435;-64
2022/11/11 02:59:08;;;;;;;19.30;8.85;;;;;;;;;;4991333;28;20022;-66
2022/11/11 03:01:33;;;;;;;20.08;8.38;;;;;;;;;;4990436;28;20021;-64
2022/11/11 03:03:58;;;;;;;35.90;9.65;;;;;;;;;;4990748;28;20523;-65
2022/11/11 03:06:24;;;;;;;32.83;9.13;;;;;;;;;;4989867;28;20030;-63
2022/11/11 03:08:49;;;;;;;25.55;9.63;;;;;;;;;;5001469;28;20026;-66
2022/11/11 03:11:14;;;;;;;28.85;8.82;;;;;;;;;;4990432;28;20025;-64
2022/11/11 03:13:39;;;;;;;30.13;8.82;;;;;;;;;;4989294;28;20485;-66
2022/11/11 03:16:05;;;;;;;33.05;10.27;;;;;;;;;;4988513;28;20029;-64
2022/11/11 03:18:30;;;;;;;21.63;9.35;;;;;;;;;;4988662;28;20022;-64
2022/11/11 03:21:04;;;;;;;33.55;9.27;;;;;;;;;;4988545;28;20022;-66
2022/11/11 03:23:30;;;;;;;32.92;9.75;;;;;;;;;;4989742;28;20031;-67
2022/11/11 03:25:55;;;;;;;27.48;8.77;;;;;;;;;;4990047;28;20105;-66
2022/11/11 03:28:20;;;;;;;33.10;9.57;;;;;;;;;;4989580;28;20046;-66
2022/11/11 03:30:47;;;;;;;32.83;9.70;;;;;;;;;;4989682;28;20050;-66
2022/11/11 03:33:12;;;;;;;35.55;8.93;;;;;;;;;;4988370;28;20026;-65
2022/11/11 03:35:38;;;;;;;28.50;9.65;;;;;;;;;;4989905;28;20098;-66
2022/11/11 03:41:02;;;;;;;28.52;9.50;;;;;;;;;;4975220;28;20054;-65
2022/11/11 03:43:28;;;;;;;25.55;9.23;;;;;;;;;;5004883;28;20096;-63
2022/11/11 03:45:58;;;;;;;27.67;9.38;;;;;;;;;;4992220;28;20106;-64
2022/11/11 03:48:24;;;;;;;24.35;9.50;;;;;;;;;;4990737;28;20113;-65
2022/11/11 03:50:49;;;;;;;28.52;9.25;;;;;;;;;;4991024;28;20781;-65
2022/11/11 03:53:15;;;;;;;26.38;9.18;;;;;;;;;;4990464;28;20105;-65
2022/11/11 03:55:41;;;;;;;44.42;9.85;;;;;;;;;;4989787;28;20050;-66
2022/11/11 03:58:06;;;;;;;32.97;9.48;;;;;;;;;;4991581;28;20049;-66
2022/11/11 04:00:32;;;;;;;33.95;9.70;;;;;;;;;;4999808;28;20017;-66
2022/11/11 04:11:35;;;;;;;27.00;9.18;;;;;;;;;;4977124;28;20069;-66
2022/11/11 04:16:46;;;;;;;27.33;8.95;;;;;;;;;;4988435;28;20420;-66
2022/11/11 04:21:55;;;;;;;30.42;8.30;;;;;;;;;;5004228;28;20037;-66
2022/11/11 04:27:09;;;;;;;30.20;8.65;;;;;;;;;;4991968;28;20034;-65
2022/11/11 04:29:34;;;;;;;16.95;7.80;;;;;;;;;;4993654;28;20030;-64
2022/11/11 04:34:49;;;;;;;30.23;8.32;;;;;;;;;;4999293;28;20328;-63
2022/11/11 04:37:15;;;;;;;26.38;9.25;;;;;;;;;;4981371;28;20033;-65
2022/11/11 04:42:25;;;;;;;28.85;9.23;;;;;;;;;;4985820;28;20050;-66
2022/11/11 04:47:34;;;;;;;21.23;7.80;;;;;;;;;;4990503;28;20543;-67
2022/11/11 04:49:59;;;;;;;32.17;9.35;;;;;;;;;;4992497;28;20026;-66
2022/11/11 04:52:26;;;;;;;36.33;8.52;;;;;;;;;;4998428;28;20076;-66
2022/11/11 04:57:44;;;;;;;33.13;10.45;;;;;;;;;;4992184;28;20029;-65
2022/11/11 05:00:10;;;;;;;28.10;8.15;;;;;;;;;;4992780;28;20022;-64
2022/11/11 05:05:20;;;;;;;20.90;8.02;;;;;;;;;;4992056;28;20527;-63
2022/11/11 05:10:29;;;;;;;24.45;9.35;;;;;;;;;;4991517;28;21424;-65
2022/11/11 05:21:19;;;;;;;27.45;8.05;;;;;;;;;;5007716;28;20598;-65
2022/11/11 05:21:22;;;;;;;22.02;7.60;;;;;;;;;;4994261;28;20025;-67
2022/11/11 05:26:34;;;;;;;27.88;8.60;;;;;;;;;;5002495;28;20036;-64
2022/11/11 05:28:59;;;;;;;28.40;9.65;;;;;;;;;;4998792;28;20022;-66
2022/11/11 05:31:25;;;;;;;20.80;7.30;;;;;;;;;;4990878;28;20022;-66
2022/11/11 05:33:51;;;;;;;37.05;8.98;;;;;;;;;;4990516;28;20025;-66
2022/11/11 05:36:16;;;;;;;33.55;8.50;;;;;;;;;;4990102;28;20015;-66
2022/11/11 05:38:42;;;;;;;24.58;7.18;;;;;;;;;;4990483;28;20018;-64
2022/11/11 05:41:07;;;;;;;20.98;7.32;;;;;;;;;;4983330;28;20084;-66
2022/11/11 05:43:32;;;;;;;28.52;7.80;;;;;;;;;;5004370;28;20038;-66
2022/11/11 05:45:58;;;;;;;26.40;7.30;;;;;;;;;;4992339;28;20022;-65
2022/11/11 05:48:23;;;;;;;23.98;8.85;;;;;;;;;;5002440;28;20022;-66
2022/11/11 05:50:48;;;;;;;27.90;8.57;;;;;;;;;;4989954;28;20034;-66
2022/11/11 05:53:13;;;;;;;28.92;7.70;;;;;;;;;;4990782;28;20030;-66
2022/11/11 05:55:39;;;;;;;22.10;7.60;;;;;;;;;;4991175;28;20026;-66
2022/11/11 05:58:04;;;;;;;22.45;7.70;;;;;;;;;;4991206;28;20014;-65
2022/11/11 06:00:29;;;;;;;21.60;7.47;;;;;;;;;;4990391;28;20443;-67
2022/11/11 06:03:00;;;;;;;26.52;8.07;;;;;;;;;;4992502;28;20539;-67
2022/11/11 06:05:25;;;;;;;23.55;8.48;;;;;;;;;;4991033;28;20074;-66
2022/11/11 06:07:53;;;;;;;20.63;7.68;;;;;;;;;;4998497;28;20112;-65
2022/11/11 06:10:31;;;;;;;20.20;8.15;;;;;;;;;;4991845;28;20026;-67
2022/11/11 06:13:08;;;;;;;26.45;8.90;;;;;;;;;;4990841;28;20105;-66
2022/11/11 06:15:34;;;;;;;20.02;8.38;;;;;;;;;;4980594;28;20022;-65
2022/11/11 06:18:00;;;;;;;29.95;8.52;;;;;;;;;;4990271;28;20041;-66
2022/11/11 06:20:25;;;;;;;19.25;7.78;;;;;;;;;;4996260;28;20030;-67
2022/11/11 06:22:57;;;;;;;22.23;7.63;;;;;;;;;;4998421;28;20050;-65
2022/11/11 06:28:10;;;;;;;24.48;6.55;;;;;;;;;;4991083;28;20732;-66
2022/11/11 06:30:36;;;;;;;22.05;7.03;;;;;;;;;;4990648;28;20113;-66
2022/11/11 06:33:01;;;;;;;25.33;8.13;;;;;;;;;;4990722;28;20030;-67
2022/11/11 06:35:26;;;;;;;24.10;7.65;;;;;;;;;;4990114;28;20066;-66
2022/11/11 06:37:51;;;;;;;17.98;7.53;;;;;;;;;;4989159;28;20555;-67
2022/11/11 06:40:17;;;;;;;26.35;7.20;;;;;;;;;;4990850;28;20042;-66
2022/11/11 06:42:42;;;;;;;28.30;9.20;;;;;;;;;;4991830;28;20097;-67
2022/11/11 06:45:07;;;;;;;17.98;7.90;;;;;;;;;;4990153;28;20034;-67
2022/11/11 06:47:33;;;;;;;17.30;7.80;;;;;;;;;;4992112;28;20034;-67
2022/11/11 06:49:58;;;;;;;27.55;8.77;;;;;;;;;;4994445;28;20030;-64
2022/11/11 06:52:23;;;;;;;20.45;8.05;;;;;;;;;;4998969;28;20026;-67
2022/11/11 06:54:48;;;;;;;20.08;7.75;;;;;;;;;;5002606;28;20030;-65
2022/11/11 06:57:13;;;;;;;27.50;6.60;;;;;;;;;;4989282;28;20088;-66
2022/11/11 06:59:39;;;;;;;21.00;7.07;;;;;;;;;;4989671;28;20018;-68
2022/11/11 07:02:04;;;;;;;28.95;7.10;;;;;;;;;;4989297;28;20049;-67
2022/11/11 07:04:29;;;;;;;18.45;6.13;;;;;;;;;;4989338;28;20057;-67
2022/11/11 07:06:54;;;;;;;21.70;6.25;;;;;;;;;;4990419;28;20405;-67
2022/11/11 07:09:22;;;;;;;22.85;5.55;;;;;;;;;;4994040;28;20437;-66
2022/11/11 07:11:47;;;;;;;18.10;5.93;;;;;;;;;;4990684;28;20033;-66
2022/11/11 07:14:12;;;;;;;30.42;6.40;;;;;;;;;;4987309;28;20026;-66
2022/11/11 07:16:37;;;;;;;25.52;6.65;;;;;;;;;;4987756;28;20018;-64
2022/11/11 07:19:03;;;;;;;19.48;6.63;;;;;;;;;;4990002;28;20023;-66
2022/11/11 07:21:28;;;;;;;23.27;8.00;;;;;;;;;;4990163;28;20022;-67
2022/11/11 07:23:53;;;;;;;29.42;5.82;;;;;;;;;;4990188;28;20018;-67
2022/11/11 07:26:18;;;;;;;19.73;5.30;;;;;;;;;;4989847;28;20106;-66
2022/11/11 07:28:43;;;;;;;16.70;5.22;;;;;;;;;;4990453;28;20101;-66
2022/11/11 07:31:09;;;;;;;17.80;5.50;;;;;;;;;;4989199;28;20153;-66
2022/11/11 07:33:34;;;;;;;15.50;5.07;;;;;;;;;;4989889;28;20088;-65
2022/11/11 07:35:59;;;;;;;21.67;5.28;;;;;;;;;;4989323;28;20054;-66
2022/11/11 07:38:24;;;;;;;11.23;4.38;;;;;;;;;;4989058;28;20544;-66
2022/11/11 07:40:49;;;;;;;15.43;4.65;;;;;;;;;;4990342;28;20022;-66
2022/11/11 07:43:15;;;;;;;24.60;4.72;;;;;;;;;;5000859;28;20022;-65
2022/11/11 07:45:40;;;;;;;12.95;5.50;;;;;;;;;;4992016;28;20078;-67
2022/11/11 07:48:05;;;;;;;18.23;4.20;;;;;;;;;;4997097;28;20022;-65
2022/11/11 07:50:30;;;;;;;15.02;4.65;;;;;;;;;;4992298;28;20030;-67
2022/11/11 07:52:56;;;;;;;16.55;5.10;;;;;;;;;;4989006;28;20030;-67
2022/11/11 07:55:22;;;;;;;13.70;4.15;;;;;;;;;;4989324;28;20035;-66
2022/11/11 07:57:50;;;;;;;19.00;4.75;;;;;;;;;;4988651;28;20023;-68
2022/11/11 08:00:15;;;;;;;24.90;4.78;;;;;;;;;;4990355;28;20015;-65
2022/11/11 08:02:45;;;;;;;17.75;4.65;;;;;;;;;;4992677;28;20033;-65
2022/11/11 08:05:10;;;;;;;11.90;4.55;;;;;;;;;;4992725;28;20022;-66
2022/11/11 08:07:36;;;;;;;16.60;4.45;;;;;;;;;;4999240;28;20036;-64
2022/11/11 08:10:01;;;;;;;21.52;5.30;;;;;;;;;;4993471;28;20065;-64
2022/11/11 08:15:10;;;;;;;25.02;4.55;;;;;;;;;;4992322;28;20143;-67
2022/11/11 08:17:37;;;;;;;19.95;4.40;;;;;;;;;;4991126;28;20046;-66
2022/11/11 08:20:02;;;;;;;7.50;3.60;;;;;;;;;;4992932;28;20534;-67
2022/11/11 08:22:27;;;;;;;13.25;4.00;;;;;;;;;;5009526;28;20104;-65
2022/11/11 08:24:53;;;;;;;10.32;3.40;;;;;;;;;;4993237;28;20322;-66
2022/11/11 08:27:18;;;;;;;15.35;3.45;;;;;;;;;;4992742;28;20442;-65
2022/11/11 08:29:43;;;;;;;13.30;3.97;;;;;;;;;;4991587;28;20113;-66
2022/11/11 08:32:08;;;;;;;20.83;3.60;;;;;;;;;;4990152;28;20019;-66
2022/11/11 08:34:34;;;;;;;13.35;3.85;;;;;;;;;;4992137;28;20496;-65
2022/11/11 08:36:59;;;;;;;57.17;4.68;;;;;;;;;;4989581;28;20026;-66
2022/11/11 08:39:24;;;;;;;14.63;3.55;;;;;;;;;;4990609;28;20101;-64
2022/11/11 08:41:49;;;;;;;16.35;3.80;;;;;;;;;;4992509;28;20015;-65
2022/11/11 08:44:15;;;;;;;20.60;4.03;;;;;;;;;;4992692;28;20496;-67
2022/11/11 08:46:40;;;;;;;8.80;3.10;;;;;;;;;;4990316;28;20029;-65
2022/11/11 08:49:05;;;;;;;19.52;3.90;;;;;;;;;;5006769;28;20041;-65
2022/11/11 08:51:30;;;;;;;12.75;3.35;;;;;;;;;;4998763;28;20037;-66
2022/11/11 08:53:55;;;;;;;25.77;4.20;;;;;;;;;;5003712;28;20092;-65
2022/11/11 08:56:21;;;;;;;18.70;3.60;;;;;;;;;;4997931;28;20048;-66
2022/11/11 08:58:46;;;;;;;17.67;3.92;;;;;;;;;;4990546;28;20041;-68
2022/11/11 09:01:12;;;;;;;15.13;3.30;;;;;;;;;;4991348;28;20026;-65
2022/11/11 09:03:38;;;;;;;14.18;3.60;;;;;;;;;;4991634;28;20018;-66
2022/11/11 09:06:03;;;;;;;10.23;3.45;;;;;;;;;;4991474;28;20511;-64
2022/11/11 09:08:28;;;;;;;15.48;3.67;;;;;;;;;;4999045;28;20669;-66
2022/11/11 09:10:53;;;;;;;14.90;3.40;;;;;;;;;;4992337;28;20069;-66
2022/11/11 09:13:18;;;;;;;15.48;3.13;;;;;;;;;;4991445;28;20081;-64
2022/11/11 09:15:44;;;;;;;11.20;3.35;;;;;;;;;;4988870;28;20026;-66
2022/11/11 09:18:09;;;;;;;14.52;3.83;;;;;;;;;;4990537;28;20022;-66
2022/11/11 09:20:36;;;;;;;28.75;5.45;;;;;;;;;;4991910;28;20059;-64
2022/11/11 09:23:01;;;;;;;19.27;5.32;;;;;;;;;;4991620;28;20019;-65
2022/11/11 09:25:26;;;;;;;15.27;5.22;;;;;;;;;;4992370;28;20113;-65
2022/11/11 09:27:58;;;;;;;13.35;4.45;;;;;;;;;;4990480;28;20499;-66
2022/11/11 09:30:24;;;;;;;19.52;4.13;;;;;;;;;;4990163;28;20053;-67
2022/11/11 09:32:50;;;;;;;25.33;4.38;;;;;;;;;;4990582;28;20072;-67
2022/11/11 09:35:15;;;;;;;16.65;4.05;;;;;;;;;;4990419;28;20030;-65
2022/11/11 09:37:40;;;;;;;17.75;4.43;;;;;;;;;;4990453;28;20053;-66
2022/11/11 09:40:06;;;;;;;21.25;5.90;;;;;;;;;;4989780;28;20399;-67
2022/11/11 09:42:48;;;;;;;16.40;4.65;;;;;;;;;;5005129;28;20484;-65
2022/11/11 09:45:13;;;;;;;25.75;3.85;;;;;;;;;;4995435;28;20027;-67
2022/11/11 09:47:38;;;;;;;11.18;3.15;;;;;;;;;;4996063;28;20601;-66
2022/11/11 09:50:15;;;;;;;14.07;4.07;;;;;;;;;;5004344;28;20064;-67
2022/11/11 09:52:45;;;;;;;20.02;3.90;;;;;;;;;;4990722;28;20264;-66
2022/11/11 09:55:29;;;;;;;12.57;3.20;;;;;;;;;;4991123;28;20034;-66
2022/11/11 09:57:57;;;;;;;17.35;3.75;;;;;;;;;;4989672;28;20018;-67
2022/11/11 10:00:24;;;;;;;15.13;3.70;;;;;;;;;;4991469;28;20023;-66
2022/11/11 10:02:55;;;;;;;16.85;3.25;;;;;;;;;;4989919;28;20034;-66
2022/11/11 10:05:37;;;;;;;9.73;2.78;;;;;;;;;;4990136;28;20109;-65
2022/11/11 10:08:09;;;;;;;15.75;3.60;;;;;;;;;;4998391;28;20026;-65
2022/11/11 10:10:44;;;;;;;15.18;3.35;;;;;;;;;;4990937;28;20100;-65
2022/11/11 10:13:14;;;;;;;15.73;3.63;;;;;;;;;;4990140;28;20113;-66
2022/11/11 10:15:56;;;;;;;18.13;4.10;;;;;;;;;;4988498;28;20026;-66
2022/11/11 10:18:21;;;;;;;16.92;3.03;;;;;;;;;;4988768;28;20578;-66
2022/11/11 10:20:51;;;;;;;13.40;2.40;;;;;;;;;;4991620;28;20022;-66
2022/11/11 10:23:19;;;;;;;18.63;4.50;;;;;;;;;;4994919;28;20022;-65
2022/11/11 10:25:54;;;;;;;4.87;2.10;;;;;;;;;;4989316;28;20034;-65
2022/11/11 10:28:21;;;;;;;8.07;2.15;;;;;;;;;;4989817;28;20018;-66
2022/11/11 10:30:47;;;;;;;16.73;2.67;;;;;;;;;;4989925;28;20084;-66
2022/11/11 10:33:27;;;;;;;19.67;3.03;;;;;;;;;;4990108;28;20614;-66
2022/11/11 10:35:54;;;;;;;20.80;2.85;;;;;;;;;;4989254;28;20026;-67
2022/11/11 10:38:32;;;;;;;7.30;2.20;;;;;;;;;;4988139;28;20019;-64
2022/11/11 10:41:00;;;;;;;9.43;2.88;;;;;;;;;;4990878;28;20031;-66
2022/11/11 10:43:26;;;;;;;22.48;2.83;;;;;;;;;;4990458;28;20054;-65
2022/11/11 10:46:04;;;;;;;7.85;2.05;;;;;;;;;;4990751;28;20030;-68
2022/11/11 10:48:49;;;;;;;10.98;2.70;;;;;;;;;;4995652;28;20032;-66
2022/11/11 10:51:15;;;;;;;15.05;2.33;;;;;;;;;;4984867;28;20026;-66
2022/11/11 10:53:56;;;;;;;12.52;2.40;;;;;;;;;;5001293;28;20382;-67
2022/11/11 10:56:23;;;;;;;10.70;2.15;;;;;;;;;;4982968;28;20105;-65
2022/11/11 10:58:49;;;;;;;8.20;2.47;;;;;;;;;;4990264;28;20026;-64
2022/11/11 11:01:17;;;;;;;11.55;2.30;;;;;;;;;;4987584;28;20026;-66
2022/11/11 11:03:44;;;;;;;11.65;2.05;;;;;;;;;;4990618;28;20014;-65
2022/11/11 11:06:19;;;;;;;9.75;1.95;;;;;;;;;;4989798;28;20022;-65
2022/11/11 11:08:56;;;;;;;10.05;2.17;;;;;;;;;;4997875;28;20032;-66
2022/11/11 11:11:24;;;;;;;14.25;2.33;;;;;;;;;;4990286;28;20026;-65
2022/11/11 11:13:54;;;;;;;8.23;2.10;;;;;;;;;;4989514;28;20480;-66
2022/11/11 11:16:22;;;;;;;9.57;1.80;;;;;;;;;;4986335;28;20035;-66
2022/11/11 11:19:06;;;;;;;11.10;1.77;;;;;;;;;;4989531;28;20064;-66
2022/11/11 11:21:47;;;;;;;11.60;2.15;;;;;;;;;;4989261;28;20022;-66
2022/11/11 11:24:18;;;;;;;8.30;1.40;;;;;;;;;;4989311;28;20034;-65
2022/11/11 11:26:44;;;;;;;10.23;2.10;;;;;;;;;;4988526;28;20050;-68
2022/11/11 11:29:10;;;;;;;10.13;2.00;;;;;;;;;;4989533;28;20065;-67
2022/11/11 11:31:36;;;;;;;5.10;1.67;;;;;;;;;;4989182;28;20400;-67
2022/11/11 11:34:02;;;;;;;7.50;1.88;;;;;;;;;;4989102;28;20030;-67
2022/11/11 11:36:27;;;;;;;8.43;1.75;;;;;;;;;;4991590;28;20022;-65
2022/11/11 11:38:52;;;;;;;12.10;2.17;;;;;;;;;;4993072;28;20014;-65
2022/11/11 11:41:35;;;;;;;13.43;1.83;;;;;;;;;;4993592;28;20397;-66
2022/11/11 11:44:00;;;;;;;9.18;2.20;;;;;;;;;;4999689;28;20030;-67
2022/11/11 11:46:25;;;;;;;10.48;2.03;;;;;;;;;;4991586;28;20028;-66
2022/11/11 11:49:04;;;;;;;9.07;1.97;;;;;;;;;;5005376;28;20027;-67
2022/11/11 11:51:29;;;;;;;6.53;1.27;;;;;;;;;;4999621;28;20332;-67
2022/11/11 11:54:03;;;;;;;10.45;1.40;;;;;;;;;;4992175;28;20123;-67
2022/11/11 11:56:35;;;;;;;10.80;3.15;;;;;;;;;;4991797;28;20034;-67
2022/11/11 11:59:07;;;;;;;9.10;1.90;;;;;;;;;;4987596;28;20029;-65
2022/11/11 12:01:32;;;;;;;10.38;3.05;;;;;;;;;;4988052;28;20029;-67
2022/11/11 12:04:04;;;;;;;7.20;2.08;;;;;;;;;;4987673;28;20014;-66
2022/11/11 12:06:40;;;;;;;14.63;1.88;;;;;;;;;;4991417;28;20041;-67
2022/11/11 12:09:18;;;;;;;15.43;2.10;;;;;;;;;;4989786;28;20468;-64
2022/11/11 12:11:49;;;;;;;6.87;1.20;;;;;;;;;;4988491;28;20026;-64
2022/11/11 12:14:29;;;;;;;7.95;1.40;;;;;;;;;;4988152;28;20019;-67
2022/11/11 12:17:00;;;;;;;11.90;1.58;;;;;;;;;;4989101;28;20051;-69
2022/11/11 12:19:25;;;;;;;13.23;2.63;;;;;;;;;;4995251;28;20053;-68
2022/11/11 12:21:53;;;;;;;8.73;1.50;;;;;;;;;;5006336;28;20049;-68
2022/11/11 12:24:19;;;;;;;5.25;1.50;;;;;;;;;;4995268;28;20105;-68
2022/11/11 12:27:02;;;;;;;6.03;1.70;;;;;;;;;;4991766;28;20093;-68
2022/11/11 12:29:35;;;;;;;7.28;1.20;;;;;;;;;;4992914;28;20306;-67
2022/11/11 12:32:19;;;;;;;13.73;2.42;;;;;;;;;;4991341;28;20041;-70
2022/11/11 12:34:47;;;;;;;4.80;1.50;;;;;;;;;;4992237;28;20053;-71
2022/11/11 12:37:24;;;;;;;6.43;1.30;;;;;;;;;;4991231;28;20022;-68
2022/11/11 12:40:08;;;;;;;7.57;1.55;;;;;;;;;;4993133;28;20498;-68
2022/11/11 12:42:45;;;;;;;5.82;1.20;;;;;;;;;;4992210;28;20061;-67
2022/11/11 12:45:10;;;;;;;11.43;2.78;;;;;;;;;;4992181;28;20120;-69
2022/11/11 12:47:47;;;;;;;6.75;1.50;;;;;;;;;;4996074;28;20533;-70
2022/11/11 12:50:20;;;;;;;9.90;1.42;;;;;;;;;;5000115;28;20061;-68
2022/11/11 12:52:48;;;;;;;4.43;1.40;;;;;;;;;;5002697;28;20025;-69
2022/11/11 12:55:25;;;;;;;8.55;1.48;;;;;;;;;;5000840;28;20045;-68
2022/11/11 12:58:13;;;;;;;15.63;1.63;;;;;;;;;;4991098;28;20027;-67
2022/11/11 13:00:43;;;;;;;7.85;1.23;;;;;;;;;;4981176;28;20098;-67
2022/11/11 13:03:09;;;;;;;8.00;1.48;;;;;;;;;;4990716;28;20031;-66
2022/11/11 13:05:49;;;;;;;12.15;2.80;;;;;;;;;;4995294;28;20026;-69
2022/11/11 13:08:17;;;;;;;9.27;1.48;;;;;;;;;;4998472;28;20026;-70
2022/11/11 13:10:42;;;;;;;3.38;1.15;;;;;;;;;;4991952;28;20018;-67
2022/11/11 13:13:26;;;;;;;15.38;1.60;;;;;;;;;;4991789;28;20038;-69
2022/11/11 13:15:51;;;;;;;9.70;1.70;;;;;;;;;;4990298;28;20030;-69
2022/11/11 13:18:25;;;;;;;8.65;1.83;;;;;;;;;;4990708;28;20038;-69
2022/11/11 13:21:01;;;;;;;6.43;1.48;;;;;;;;;;4989532;28;20717;-71
2022/11/11 13:23:27;;;;;;;8.20;1.58;;;;;;;;;;4993175;28;20468;-69
2022/11/11 13:25:54;;;;;;;7.07;2.25;;;;;;;;;;4991503;28;20038;-69
2022/11/11 13:28:34;;;;;;;5.53;1.35;;;;;;;;;;4992085;28;20376;-67
2022/11/11 13:31:09;;;;;;;5.22;1.27;;;;;;;;;;4991924;28;20054;-67
2022/11/11 13:33:37;;;;;;;7.45;1.48;;;;;;;;;;4991799;28;20511;-69
2022/11/11 13:36:04;;;;;;;6.05;1.48;;;;;;;;;;4989022;28;20026;-69
2022/11/11 13:38:31;;;;;;;10.65;1.52;;;;;;;;;;4990716;28;20023;-70
2022/11/11 13:40:59;;;;;;;7.47;1.43;;;;;;;;;;4990600;28;20022;-70
2022/11/11 13:43:27;;;;;;;6.53;1.45;;;;;;;;;;5002642;28;20026;-67
2022/11/11 13:45:55;;;;;;;5.40;1.38;;;;;;;;;;4990599;28;20030;-67
2022/11/11 13:48:23;;;;;;;5.70;1.55;;;;;;;;;;5001644;28;20633;-67
2022/11/11 13:50:49;;;;;;;5.88;1.23;;;;;;;;;;4999938;28;20030;-66
2022/11/11 13:53:26;;;;;;;6.25;1.63;;;;;;;;;;4990501;28;20042;-68
2022/11/11 13:55:59;;;;;;;5.35;1.70;;;;;;;;;;4991027;28;20018;-68
2022/11/11 13:58:37;;;;;;;20.15;2.15;;;;;;;;;;4989525;28;20377;-68
2022/11/11 14:01:05;;;;;;;16.35;2.95;;;;;;;;;;4989295;28;20022;-69
2022/11/11 14:03:34;;;;;;;16.85;2.00;;;;;;;;;;4989192;28;20022;-71
2022/11/11 14:06:11;;;;;;;6.93;2.10;;;;;;;;;;4989601;28;20101;-69
2022/11/11 14:09:02;;;;;;;5.53;1.67;;;;;;;;;;4997727;28;20523;-68
2022/11/11 14:11:34;;;;;;;9.82;2.40;;;;;;;;;;4990589;28;20038;-68
2022/11/11 14:14:25;;;;;;;15.70;2.50;;;;;;;;;;4990786;28;20574;-68
2022/11/11 14:16:53;;;;;;;16.92;3.35;;;;;;;;;;4980451;28;20104;-70
2022/11/11 14:19:18;;;;;;;7.50;2.05;;;;;;;;;;4983702;28;20499;-69
2022/11/11 14:21:46;;;;;;;7.40;2.22;;;;;;;;;;5004659;28;20034;-66
2022/11/11 14:24:21;;;;;;;11.18;2.58;;;;;;;;;;4988592;28;20499;-68
2022/11/11 14:26:55;;;;;;;10.55;2.20;;;;;;;;;;4989463;28;20388;-69
2022/11/11 14:29:23;;;;;;;10.18;3.28;;;;;;;;;;4990140;28;20022;-69
2022/11/11 14:32:07;;;;;;;12.25;3.95;;;;;;;;;;4989588;28;20507;-66
2022/11/11 14:35:04;;;;;;;12.88;3.60;;;;;;;;;;4988145;28;20026;-66
2022/11/11 14:37:32;;;;;;;14.85;3.53;;;;;;;;;;4976683;28;20073;-68
2022/11/11 14:39:57;;;;;;;19.73;5.03;;;;;;;;;;4990709;28;20026;-69
2022/11/11 14:42:34;;;;;;;10.40;3.30;;;;;;;;;;4990143;28;20363;-69
2022/11/11 14:45:05;;;;;;;13.20;2.80;;;;;;;;;;4990031;28;20026;-69
2022/11/11 14:47:38;;;;;;;16.33;3.30;;;;;;;;;;4996107;28;20026;-69
2022/11/11 14:50:24;;;;;;;13.52;4.05;;;;;;;;;;4999585;28;20105;-66
2022/11/11 14:52:49;;;;;;;25.83;6.97;;;;;;;;;;5001785;28;20026;-66
2022/11/11 14:55:17;;;;;;;19.50;3.92;;;;;;;;;;4999160;28;20108;-70
2022/11/11 14:57:54;;;;;;;12.10;3.63;;;;;;;;;;4989687;28;20026;-69
2022/11/11 15:00:19;;;;;;;11.13;3.03;;;;;;;;;;4989574;28;20014;-68
2022/11/11 15:02:51;;;;;;;13.88;3.60;;;;;;;;;;4988194;28;20380;-68
2022/11/11 15:05:25;;;;;;;16.13;4.35;;;;;;;;;;4989300;28;20520;-69
2022/11/11 15:08:23;;;;;;;10.73;3.28;;;;;;;;;;4995876;28;20026;-70
2022/11/11 15:11:10;;;;;;;12.67;3.70;;;;;;;;;;4962756;28;20041;-67
2022/11/11 15:13:50;;;;;;;16.05;5.10;;;;;;;;;;4989869;28;20030;-70
2022/11/11 15:16:15;;;;;;;12.88;3.70;;;;;;;;;;4988128;28;20049;-69
2022/11/11 15:18:53;;;;;;;12.38;3.88;;;;;;;;;;4989616;28;20026;-68
2022/11/11 15:21:18;;;;;;;10.00;3.53;;;;;;;;;;4988570;28;20089;-69
2022/11/11 15:23:43;;;;;;;14.17;4.70;;;;;;;;;;4989627;28;20511;-67
2022/11/11 15:26:14;;;;;;;14.05;4.07;;;;;;;;;;4989622;28;20343;-67
2022/11/11 15:28:42;;;;;;;13.32;4.38;;;;;;;;;;4990175;28;20081;-70
2022/11/11 15:31:20;;;;;;;11.80;3.30;;;;;;;;;;4989168;28;20797;-70
2022/11/11 15:33:45;;;;;;;18.85;4.63;;;;;;;;;;4989530;28;20053;-68
2022/11/11 15:36:14;;;;;;;14.90;3.73;;;;;;;;;;4987337;28;20014;-70
2022/11/11 15:38:39;;;;;;;9.27;3.72;;;;;;;;;;4989225;28;20271;-67
2022/11/11 15:41:05;;;;;;;14.85;3.78;;;;;;;;;;4990545;28;20025;-68
2022/11/11 15:43:33;;;;;;;14.23;3.85;;;;;;;;;;5007060;28;20029;-69
2022/11/11 15:46:00;;;;;;;14.50;3.40;;;;;;;;;;4988799;28;20023;-67
2022/11/11 15:48:26;;;;;;;16.30;5.15;;;;;;;;;;4997177;28;20054;-66
2022/11/11 15:50:52;;;;;;;20.30;5.70;;;;;;;;;;4997063;28;20064;-68
2022/11/11 15:53:22;;;;;;;12.23;3.83;;;;;;;;;;4989241;28;20053;-70
2022/11/11 15:55:51;;;;;;;16.88;5.03;;;;;;;;;;4989725;28;20054;-70